createdAt,value
2022-12-27T00:00:11.165Z,77.92
2022-12-27T00:03:05.729Z,79.14
2022-12-27T00:05:37.429Z,96.49
2022-12-27T00:08:09.185Z,92.15
2022-12-27T00:10:46.305Z,80.75
2022-12-27T00:13:19.312Z,77.42
2022-12-27T00:15:52.799Z,77.85
2022-12-27T00:18:24.637Z,77.29
2022-12-27T00:21:08.435Z,77.46
2022-12-27T00:23:42.894Z,77.16
2022-12-27T00:26:19.295Z,76.89
2022-12-27T00:28:52.043Z,76.56
2022-12-27T00:31:25.373Z,75.91
2022-12-27T00:33:59.703Z,75.70
2022-12-27T00:36:32.904Z,75.81
2022-12-27T00:39:05.315Z,75.47
2022-12-27T00:41:37.203Z,75.13
2022-12-27T00:44:09.732Z,74.76
2022-12-27T00:46:41.466Z,74.44
2022-12-27T00:49:13.286Z,74.00
2022-12-27T00:51:45.046Z,73.49
2022-12-27T00:54:16.906Z,73.61
2022-12-27T00:56:48.641Z,73.82
2022-12-27T00:59:20.364Z,73.99
2022-12-27T01:01:52.442Z,74.10
2022-12-27T01:04:24.390Z,74.29
2022-12-27T01:06:56.145Z,74.21
2022-12-27T01:09:28.245Z,74.19
2022-12-27T01:12:00.012Z,73.91
2022-12-27T01:14:32.473Z,73.96
2022-12-27T01:17:04.185Z,74.09
2022-12-27T01:19:37.909Z,73.79
2022-12-27T01:22:09.999Z,73.44
2022-12-27T01:24:41.760Z,73.86
2022-12-27T01:27:13.709Z,74.00
2022-12-27T01:29:45.353Z,74.05
2022-12-27T01:32:17.063Z,73.57
2022-12-27T01:34:48.743Z,73.32
2022-12-27T01:37:20.482Z,73.88
2022-12-27T01:39:52.263Z,74.02
2022-12-27T01:42:42.003Z,74.20
2022-12-27T01:45:17.711Z,74.31
2022-12-27T01:47:55.138Z,74.25
2022-12-27T01:50:32.253Z,74.14
2022-12-27T01:53:12.566Z,74.92
2022-12-27T01:55:49.954Z,75.15
2022-12-27T01:58:26.548Z,75.52
2022-12-27T02:01:00.226Z,75.56
2022-12-27T02:03:36.181Z,75.41
2022-12-27T02:06:10.634Z,75.20
2022-12-27T02:08:50.832Z,75.45
2022-12-27T02:11:41.458Z,75.28
2022-12-27T02:14:14.554Z,75.14
2022-12-27T02:16:47.067Z,75.22
2022-12-27T02:19:27.001Z,75.03
2022-12-27T02:22:32.032Z,74.97
2022-12-27T02:25:19.823Z,74.68
2022-12-27T02:28:15.289Z,75.26
2022-12-27T02:30:51.753Z,74.87
2022-12-27T02:33:29.173Z,74.88
2022-12-27T02:36:05.790Z,74.86
2022-12-27T02:38:42.067Z,75.15
2022-12-27T02:41:32.310Z,75.36
2022-12-27T02:44:21.554Z,75.70
2022-12-27T02:47:12.390Z,76.00
2022-12-27T02:50:02.089Z,75.99
2022-12-27T02:53:02.176Z,76.17
2022-12-27T02:56:09.505Z,76.55
2022-12-27T02:58:51.211Z,77.32
2022-12-27T03:01:50.228Z,77.74
2022-12-27T03:04:32.794Z,77.71
2022-12-27T03:07:26.886Z,78.30
2022-12-27T03:10:29.379Z,78.51
2022-12-27T03:13:31.738Z,78.90
2022-12-27T03:16:19.383Z,79.22
2022-12-27T03:19:00.498Z,79.21
2022-12-27T03:21:52.612Z,79.60
2022-12-27T03:24:46.826Z,79.79
2022-12-27T03:27:28.278Z,79.67
2022-12-27T03:30:21.229Z,80.12
2022-12-27T03:33:15.728Z,80.32
2022-12-27T03:36:07.763Z,80.25
2022-12-27T03:38:48.278Z,80.13
2022-12-27T03:41:43.528Z,80.45
2022-12-27T03:44:25.657Z,80.11
2022-12-27T03:47:01.010Z,80.04
2022-12-27T03:49:37.483Z,80.15
2022-12-27T03:52:12.575Z,80.41
2022-12-27T03:54:48.112Z,80.54
2022-12-27T03:57:23.287Z,80.46
2022-12-27T03:59:55.432Z,80.11
2022-12-27T04:02:27.605Z,80.38
2022-12-27T04:04:59.734Z,80.28
2022-12-27T04:07:31.976Z,79.81
2022-12-27T04:10:21.339Z,80.03
2022-12-27T04:13:10.634Z,79.77
2022-12-27T04:15:59.670Z,79.69
2022-12-27T04:18:48.883Z,79.40
2022-12-27T04:21:38.860Z,79.37
2022-12-27T04:24:28.719Z,79.15
2022-12-27T04:27:17.659Z,79.18
2022-12-27T04:30:06.762Z,78.66
2022-12-27T04:32:56.027Z,78.45
2022-12-27T04:35:28.135Z,78.09
2022-12-27T04:37:59.803Z,78.24
2022-12-27T04:40:49.901Z,78.48
2022-12-27T04:43:39.077Z,78.18
2022-12-27T04:46:37.106Z,77.91
2022-12-27T04:49:30.185Z,78.02
2022-12-27T04:52:20.068Z,78.23
2022-12-27T04:55:00.847Z,78.19
2022-12-27T04:57:32.960Z,78.31
2022-12-27T05:00:22.498Z,78.23
2022-12-27T05:02:54.638Z,78.37
2022-12-27T05:05:26.847Z,78.59
2022-12-27T05:08:17.059Z,78.93
2022-12-27T05:11:09.324Z,78.64
2022-12-27T05:13:58.651Z,78.44
2022-12-27T05:16:32.307Z,78.42
2022-12-27T05:19:04.633Z,78.69
2022-12-27T05:21:39.270Z,78.80
2022-12-27T05:24:29.384Z,79.12
2022-12-27T05:27:01.522Z,79.57
2022-12-27T05:29:35.976Z,80.20
2022-12-27T05:32:12.813Z,80.50
2022-12-27T05:34:45.101Z,80.83
2022-12-27T05:37:16.951Z,80.89
2022-12-27T05:39:49.002Z,80.92
2022-12-27T05:42:20.956Z,80.69
2022-12-27T05:44:52.601Z,81.00
2022-12-27T05:47:24.374Z,81.47
2022-12-27T05:49:56.396Z,81.46
2022-12-27T05:52:28.297Z,81.38
2022-12-27T05:55:00.459Z,81.55
2022-12-27T05:57:32.237Z,81.46
2022-12-27T06:00:05.271Z,81.28
2022-12-27T06:02:44.239Z,81.03
2022-12-27T06:05:16.267Z,81.35
2022-12-27T06:07:47.909Z,81.65
2022-12-27T06:10:19.708Z,81.96
2022-12-27T06:12:51.434Z,82.06
2022-12-27T06:15:23.192Z,82.01
2022-12-27T06:17:55.024Z,81.94
2022-12-27T06:20:27.116Z,82.24
2022-12-27T06:23:01.225Z,82.13
2022-12-27T06:25:33.348Z,82.19
2022-12-27T06:28:06.289Z,82.44
2022-12-27T06:30:38.223Z,82.48
2022-12-27T06:33:09.943Z,82.58
2022-12-27T06:35:41.790Z,82.86
2022-12-27T06:38:13.531Z,83.21
2022-12-27T06:40:45.319Z,83.09
2022-12-27T06:43:17.244Z,83.29
2022-12-27T06:45:58.464Z,83.51
2022-12-27T06:48:30.906Z,83.59
2022-12-27T06:51:06.788Z,83.47
2022-12-27T06:53:39.030Z,83.55
2022-12-27T06:56:13.289Z,83.94
2022-12-27T06:58:45.236Z,83.85
2022-12-27T07:01:19.594Z,83.81
2022-12-27T07:03:53.510Z,84.08
2022-12-27T07:06:26.217Z,83.94
2022-12-27T07:08:57.024Z,83.98
2022-12-27T07:11:32.494Z,84.30
2022-12-27T07:14:05.205Z,84.66
2022-12-27T07:16:37.030Z,84.61
2022-12-27T07:19:10.330Z,83.58
2022-12-27T07:21:42.110Z,83.71
2022-12-27T07:24:13.946Z,83.65
2022-12-27T07:26:46.118Z,84.28
2022-12-27T07:29:18.440Z,84.54
2022-12-27T07:31:50.401Z,84.97
2022-12-27T07:34:22.981Z,84.02
2022-12-27T07:36:54.818Z,84.33
2022-12-27T07:39:26.461Z,84.72
2022-12-27T07:42:01.875Z,84.98
2022-12-27T07:44:40.480Z,84.88
2022-12-27T07:47:12.925Z,84.64
2022-12-27T07:49:44.618Z,84.16
2022-12-27T07:52:16.437Z,84.34
2022-12-27T07:54:48.200Z,84.54
2022-12-27T07:57:20.204Z,84.47
2022-12-27T07:59:51.845Z,84.59
2022-12-27T08:02:24.029Z,84.29
2022-12-27T08:04:55.912Z,84.22
2022-12-27T08:07:28.084Z,84.03
2022-12-27T08:10:02.240Z,85.13
2022-12-27T08:12:34.487Z,85.18
2022-12-27T08:15:07.520Z,84.10
2022-12-27T08:17:39.696Z,83.48
2022-12-27T08:20:15.822Z,84.75
2022-12-27T08:22:48.006Z,84.19
2022-12-27T08:25:19.858Z,84.90
2022-12-27T08:27:52.234Z,84.64
2022-12-27T08:30:24.006Z,84.93
2022-12-27T08:32:55.843Z,85.36
2022-12-27T08:35:52.360Z,84.80
2022-12-27T08:38:21.351Z,84.84
2022-12-27T08:40:53.168Z,84.54
2022-12-27T08:43:25.148Z,84.64
2022-12-27T08:46:00.774Z,85.06
2022-12-27T08:48:33.699Z,84.34
2022-12-27T08:51:12.607Z,84.35
2022-12-27T08:53:46.382Z,84.08
2022-12-27T08:56:18.098Z,84.23
2022-12-27T08:58:52.546Z,84.37
2022-12-27T09:01:25.703Z,84.02
2022-12-27T09:03:57.757Z,84.01
2022-12-27T09:06:29.550Z,83.65
2022-12-27T09:09:01.536Z,83.88
2022-12-27T09:11:35.230Z,83.64
2022-12-27T09:14:07.918Z,83.28
2022-12-27T09:16:41.234Z,83.15
2022-12-27T09:19:11.712Z,82.88
2022-12-27T09:21:44.414Z,83.21
2022-12-27T09:24:15.094Z,83.39
2022-12-27T09:26:46.872Z,83.38
2022-12-27T09:29:19.360Z,83.09
2022-12-27T09:31:52.078Z,83.16
2022-12-27T09:34:22.401Z,82.96
2022-12-27T09:36:54.277Z,82.54
2022-12-27T09:39:25.431Z,82.24
2022-12-27T09:45:01.805Z,81.99
2022-12-27T09:47:40.098Z,81.74
2022-12-27T09:50:18.390Z,81.81
2022-12-27T09:53:00.587Z,81.87
2022-12-27T09:55:47.070Z,81.63
2022-12-27T09:58:39.567Z,81.09
2022-12-27T10:01:22.859Z,80.60
2022-12-27T10:03:55.631Z,81.03
2022-12-27T10:06:41.581Z,80.89
2022-12-27T10:09:32.852Z,81.09
2022-12-27T10:12:15.234Z,81.23
2022-12-27T10:15:02.622Z,81.03
2022-12-27T10:17:53.081Z,80.45
2022-12-27T10:20:36.308Z,80.32
2022-12-27T10:23:13.676Z,80.06
2022-12-27T10:25:47.868Z,80.03
2022-12-27T10:28:25.591Z,80.02
2022-12-27T10:31:02.584Z,79.73
2022-12-27T10:33:36.331Z,79.60
2022-12-27T10:36:14.188Z,79.62
2022-12-27T10:38:49.061Z,82.19
2022-12-27T10:41:39.603Z,79.25
2022-12-27T10:44:13.766Z,79.11
2022-12-27T10:46:50.732Z,79.13
2022-12-27T10:49:28.186Z,79.25
2022-12-27T10:52:08.024Z,78.83
2022-12-27T10:54:52.723Z,78.30
2022-12-27T10:57:29.757Z,78.66
2022-12-27T11:00:19.105Z,78.73
2022-12-27T11:02:55.639Z,78.40
2022-12-27T11:05:30.998Z,78.41
2022-12-27T11:08:20.177Z,78.50
2022-12-27T11:11:11.923Z,78.65
2022-12-27T11:13:44.072Z,78.32
2022-12-27T11:16:27.954Z,78.16
2022-12-27T11:19:02.433Z,78.34
2022-12-27T11:21:38.820Z,78.43
2022-12-27T11:27:04.853Z,78.35
2022-12-27T11:29:37.942Z,77.96
2022-12-27T11:32:11.142Z,77.72
2022-12-27T11:34:49.669Z,77.40
2022-12-27T11:37:25.529Z,77.18
2022-12-27T11:40:12.375Z,77.01
2022-12-27T11:42:48.410Z,76.72
2022-12-27T11:45:27.782Z,76.44
2022-12-27T11:48:06.107Z,76.97
2022-12-27T11:50:51.308Z,76.51
2022-12-27T11:53:44.232Z,76.37
2022-12-27T11:56:27.393Z,76.67
2022-12-27T11:59:16.325Z,76.56
2022-12-27T12:02:19.615Z,76.18
2022-12-27T12:05:12.649Z,76.36
2022-12-27T12:08:06.157Z,76.58
2022-12-27T12:10:50.482Z,76.95
2022-12-27T12:13:53.117Z,76.91
2022-12-27T12:16:55.906Z,77.04
2022-12-27T12:19:49.914Z,77.14
2022-12-27T12:22:40.448Z,77.56
2022-12-27T12:25:37.647Z,77.71
2022-12-27T12:28:57.698Z,77.78
2022-12-27T12:31:42.382Z,78.10
2022-12-27T12:34:36.017Z,77.70
2022-12-27T12:37:18.822Z,77.44
2022-12-27T12:40:02.637Z,77.80
2022-12-27T12:42:44.235Z,78.02
2022-12-27T12:45:28.548Z,78.16
2022-12-27T12:48:20.527Z,78.36
2022-12-27T12:51:11.870Z,78.65
2022-12-27T12:54:01.122Z,78.62
2022-12-27T12:56:54.871Z,78.85
2022-12-27T13:00:12.635Z,78.49
2022-12-27T13:03:12.051Z,78.47
2022-12-27T13:05:50.228Z,78.78
2022-12-27T13:08:30.979Z,78.89
2022-12-27T13:11:23.051Z,78.80
2022-12-27T13:14:07.822Z,79.30
2022-12-27T13:16:51.619Z,79.28
2022-12-27T13:19:42.431Z,79.25
2022-12-27T13:22:22.383Z,79.15
2022-12-27T13:25:04.679Z,79.12
2022-12-27T13:27:43.699Z,79.16
2022-12-27T13:30:22.420Z,79.19
2022-12-27T13:33:22.922Z,79.05
2022-12-27T13:36:08.687Z,78.91
2022-12-27T13:39:02.334Z,78.89
2022-12-27T13:41:51.113Z,78.96
2022-12-27T13:44:55.421Z,78.96
2022-12-27T13:47:53.363Z,78.80
2022-12-27T13:50:44.698Z,78.98
2022-12-27T13:53:39.032Z,78.58
2022-12-27T13:56:52.985Z,78.01
2022-12-27T13:59:46.184Z,77.55
2022-12-27T14:02:50.190Z,77.66
2022-12-27T14:06:03.855Z,77.98
2022-12-27T14:08:41.533Z,77.91
2022-12-27T14:11:28.251Z,78.41
2022-12-27T14:14:02.110Z,78.39
2022-12-27T14:16:50.516Z,77.56
2022-12-27T14:19:52.169Z,77.23
2022-12-27T14:22:56.655Z,77.35
2022-12-27T14:25:59.319Z,77.68
2022-12-27T14:29:01.643Z,77.50
2022-12-27T14:32:09.701Z,77.42
2022-12-27T14:35:25.441Z,77.27
2022-12-27T14:38:32.452Z,77.88
2022-12-27T14:41:25.605Z,77.84
2022-12-27T14:44:13.541Z,78.20
2022-12-27T14:47:10.039Z,78.24
2022-12-27T14:50:15.185Z,78.31
2022-12-27T14:53:22.702Z,78.57
2022-12-27T14:56:08.241Z,78.50
2022-12-27T14:58:49.632Z,78.03
2022-12-27T15:01:39.203Z,77.96
2022-12-27T15:04:44.524Z,78.06
2022-12-27T15:07:42.862Z,78.06
2022-12-27T15:10:25.062Z,78.27
2022-12-27T15:13:07.059Z,77.83
2022-12-27T15:15:53.976Z,77.63
2022-12-27T15:18:48.144Z,77.91
2022-12-27T15:21:41.635Z,77.65
2022-12-27T15:24:28.701Z,77.44
2022-12-27T15:27:08.983Z,77.80
2022-12-27T15:29:53.540Z,77.83
2022-12-27T15:32:35.401Z,77.59
2022-12-27T15:35:20.045Z,77.61
2022-12-27T15:38:04.177Z,77.86
2022-12-27T15:40:47.998Z,78.00
2022-12-27T15:43:40.049Z,77.87
2022-12-27T15:46:36.374Z,77.72
2022-12-27T15:49:35.989Z,77.60
2022-12-27T15:52:16.328Z,77.53
2022-12-27T15:55:07.061Z,77.47
2022-12-27T15:57:56.566Z,77.31
2022-12-27T16:00:34.529Z,77.60
2022-12-27T16:03:35.478Z,77.59
2022-12-27T16:06:10.409Z,77.47
2022-12-27T16:08:43.392Z,77.16
2022-12-27T16:11:16.256Z,76.90
2022-12-27T16:13:50.845Z,76.93
2022-12-27T16:16:53.854Z,76.82
2022-12-27T16:20:00.441Z,76.08
2022-12-27T16:22:39.859Z,76.08
2022-12-27T16:25:34.392Z,75.97
2022-12-27T16:28:10.285Z,76.13
2022-12-27T16:30:49.226Z,75.99
2022-12-27T16:33:35.454Z,76.04
2022-12-27T16:36:19.155Z,75.92
2022-12-27T16:39:01.673Z,76.23
2022-12-27T16:42:01.397Z,76.75
2022-12-27T16:44:47.031Z,77.25
2022-12-27T16:47:40.451Z,77.49
2022-12-27T16:50:34.783Z,77.85
2022-12-27T16:53:25.674Z,78.40
2022-12-27T16:56:25.310Z,78.44
2022-12-27T16:58:57.549Z,78.67
2022-12-27T17:01:47.239Z,78.32
2022-12-27T17:04:51.839Z,77.99
2022-12-27T17:07:46.843Z,77.63
2022-12-27T17:10:54.948Z,77.68
2022-12-27T17:13:36.339Z,77.21
2022-12-27T17:16:21.723Z,76.71
2022-12-27T17:18:57.957Z,76.62
2022-12-27T17:21:35.075Z,76.22
2022-12-27T17:24:11.371Z,75.87
2022-12-27T17:27:04.594Z,75.90
2022-12-27T17:30:07.865Z,75.79
2022-12-27T17:32:52.822Z,75.85
2022-12-27T17:35:32.921Z,75.77
2022-12-27T17:38:16.231Z,76.27
2022-12-27T17:40:58.591Z,76.32
2022-12-27T17:43:58.322Z,76.43
2022-12-27T17:46:40.795Z,76.65
2022-12-27T17:49:13.504Z,76.49
2022-12-27T17:52:05.600Z,76.59
2022-12-27T17:54:55.315Z,77.14
2022-12-27T17:57:45.690Z,77.51
2022-12-27T18:00:29.098Z,77.78
2022-12-27T18:03:07.496Z,78.32
2022-12-27T18:05:46.512Z,78.49
2022-12-27T18:08:27.864Z,78.99
2022-12-27T18:11:01.879Z,79.58
2022-12-27T18:13:36.588Z,79.89
2022-12-27T18:16:17.997Z,80.32
2022-12-27T18:18:53.139Z,80.49
2022-12-27T18:21:26.925Z,80.75
2022-12-27T18:23:59.609Z,81.56
2022-12-27T18:26:38.199Z,82.06
2022-12-27T18:29:13.462Z,81.84
2022-12-27T18:31:49.506Z,82.21
2022-12-27T18:34:27.585Z,82.51
2022-12-27T18:37:03.905Z,82.48
2022-12-27T18:39:38.268Z,82.61
2022-12-27T18:42:20.486Z,82.45
2022-12-27T18:44:56.247Z,82.87
2022-12-27T18:47:29.499Z,82.40
2022-12-27T18:50:03.823Z,82.78
2022-12-27T18:52:40.888Z,82.94
2022-12-27T18:55:19.171Z,82.42
2022-12-27T18:58:01.933Z,83.03
2022-12-27T19:00:47.301Z,82.39
2022-12-27T19:03:21.367Z,82.04
2022-12-27T19:06:10.175Z,81.94
2022-12-27T19:08:48.872Z,82.18
2022-12-27T19:11:24.538Z,83.54
2022-12-27T19:13:59.326Z,83.91
2022-12-27T19:16:35.679Z,84.14
2022-12-27T19:19:17.278Z,83.64
2022-12-27T19:21:49.225Z,84.22
2022-12-27T19:24:35.795Z,84.54
2022-12-27T19:27:25.176Z,84.84
2022-12-27T19:29:57.244Z,84.82
2022-12-27T19:32:32.790Z,84.76
2022-12-27T19:35:07.610Z,85.09
2022-12-27T19:37:40.114Z,85.19
2022-12-27T19:40:18.011Z,85.23
2022-12-27T19:42:50.183Z,85.82
2022-12-27T19:45:22.566Z,85.20
2022-12-27T19:47:57.886Z,84.51
2022-12-27T19:50:30.856Z,84.39
2022-12-27T19:53:03.268Z,84.56
2022-12-27T19:55:36.629Z,85.20
2022-12-27T19:58:10.767Z,85.33
2022-12-27T20:00:43.080Z,85.48
2022-12-27T20:03:15.032Z,84.63
2022-12-27T20:06:14.311Z,84.14
2022-12-27T20:08:43.943Z,83.86
2022-12-27T20:11:18.643Z,83.74
2022-12-27T20:13:50.874Z,83.82
2022-12-27T20:16:23.263Z,83.56
2022-12-27T20:18:55.490Z,83.76
2022-12-27T20:21:28.460Z,84.25
2022-12-27T20:24:00.561Z,83.86
2022-12-27T20:26:33.311Z,83.82
2022-12-27T20:29:05.775Z,83.68
2022-12-27T20:31:44.510Z,83.76
2022-12-27T20:34:17.423Z,83.68
2022-12-27T20:36:49.833Z,83.70
2022-12-27T20:39:22.397Z,84.37
2022-12-27T20:41:55.863Z,84.18
2022-12-27T20:44:29.541Z,84.21
2022-12-27T20:47:01.629Z,84.15
2022-12-27T20:49:34.634Z,83.92
2022-12-27T20:52:07.158Z,84.00
2022-12-27T20:54:39.375Z,84.44
2022-12-27T20:57:11.820Z,84.68
2022-12-27T20:59:43.885Z,84.89
2022-12-27T21:02:15.988Z,84.88
2022-12-27T21:04:47.905Z,84.75
2022-12-27T21:07:19.640Z,84.71
2022-12-27T21:09:51.653Z,85.05
2022-12-27T21:12:23.380Z,84.86
2022-12-27T21:14:55.094Z,85.47
2022-12-27T21:17:27.003Z,85.80
2022-12-27T21:19:59.807Z,85.83
2022-12-27T21:22:31.909Z,86.27
2022-12-27T21:25:04.188Z,85.92
2022-12-27T21:27:36.110Z,85.54
2022-12-27T21:30:13.412Z,85.61
2022-12-27T21:32:45.275Z,85.47
2022-12-27T21:35:17.346Z,86.18
2022-12-27T21:37:49.203Z,85.89
2022-12-27T21:40:23.044Z,86.11
2022-12-27T21:42:55.945Z,86.31
2022-12-27T21:45:27.613Z,86.31
2022-12-27T21:47:59.392Z,86.49
2022-12-27T21:50:36.990Z,87.22
2022-12-27T21:53:09.129Z,87.20
2022-12-27T21:55:41.000Z,86.79
2022-12-27T21:58:14.663Z,86.85
2022-12-27T22:00:47.036Z,86.79
2022-12-27T22:03:18.874Z,86.63
2022-12-27T22:05:50.702Z,86.32
2022-12-27T22:08:22.390Z,86.58
2022-12-27T22:10:58.278Z,86.55
2022-12-27T22:13:30.095Z,87.18
2022-12-27T22:16:03.639Z,87.01
2022-12-27T22:18:37.294Z,86.99
2022-12-27T22:21:11.302Z,86.91
2022-12-27T22:23:45.578Z,86.84
2022-12-27T22:26:19.167Z,86.92
2022-12-27T22:28:51.315Z,86.48
2022-12-27T22:31:30.504Z,86.37
2022-12-27T22:34:30.576Z,86.36
2022-12-27T22:37:04.903Z,86.70
2022-12-27T22:39:36.658Z,86.52
2022-12-27T22:42:08.443Z,86.96
2022-12-27T22:44:40.213Z,86.80
2022-12-27T22:47:28.296Z,86.77
2022-12-27T22:50:00.468Z,86.82
2022-12-27T22:52:32.436Z,86.60
2022-12-27T22:55:07.160Z,86.79
2022-12-27T22:57:39.466Z,86.93
2022-12-27T23:00:15.987Z,87.30
2022-12-27T23:02:48.348Z,88.05
2022-12-27T23:05:20.516Z,87.55
2022-12-27T23:08:04.858Z,88.33
2022-12-27T23:10:38.601Z,87.80
2022-12-27T23:13:10.490Z,87.56
2022-12-27T23:15:42.473Z,87.44
2022-12-27T23:18:14.535Z,87.43
2022-12-27T23:21:19.108Z,87.42
2022-12-27T23:23:39.144Z,87.71
2022-12-27T23:26:14.597Z,87.88
2022-12-27T23:28:47.397Z,87.83
2022-12-27T23:31:20.100Z,88.81
2022-12-27T23:33:52.620Z,89.09
2022-12-27T23:36:24.802Z,89.02
2022-12-27T23:38:56.653Z,88.92
2022-12-27T23:41:28.924Z,89.84
2022-12-27T23:44:02.918Z,90.71
2022-12-27T23:46:35.393Z,90.16
2022-12-27T23:49:07.150Z,90.08
2022-12-27T23:51:38.837Z,90.15
2022-12-27T23:54:10.883Z,90.36
2022-12-27T23:56:42.672Z,89.87
2022-12-27T23:59:16.765Z,89.56
